sensor_id;sensor_type;location;lat;lon;timestamp;P1;durP1;ratioP1;P2;durP2;ratioP2
44434;SDS011;30138;20.964;105.830;2023-10-09T00:04:44;29.77;;;18.65;;
44434;SDS011;30138;20.964;105.830;2023-10-09T00:09:53;31.73;;;16.15;;
44434;SDS011;30138;20.964;105.830;2023-10-09T00:15:03;31.77;;;18.45;;
44434;SDS011;30138;20.964;105.830;2023-10-09T00:20:13;27.40;;;16.92;;
44434;SDS011;30138;20.964;105.830;2023-10-09T00:25:25;23.35;;;15.10;;
44434;SDS011;30138;20.964;105.830;2023-10-09T00:30:42;27.52;;;14.73;;
44434;SDS011;30138;20.964;105.830;2023-10-09T00:35:50;21.27;;;15.18;;
44434;SDS011;30138;20.964;105.830;2023-10-09T00:40:58;23.95;;;15.05;;
44434;SDS011;30138;20.964;105.830;2023-10-09T00:46:14;22.77;;;14.32;;
44434;SDS011;30138;20.964;105.830;2023-10-09T00:51:28;23.42;;;14.65;;
44434;SDS011;30138;20.964;105.830;2023-10-09T00:56:38;25.47;;;13.67;;
44434;SDS011;30138;20.964;105.830;2023-10-09T01:01:56;31.55;;;15.05;;
44434;SDS011;30138;20.964;105.830;2023-10-09T01:07:07;26.00;;;15.30;;
44434;SDS011;30138;20.964;105.830;2023-10-09T01:17:25;26.35;;;15.95;;
44434;SDS011;30138;20.964;105.830;2023-10-09T01:22:39;25.40;;;14.38;;
44434;SDS011;30138;20.964;105.830;2023-10-09T01:27:48;25.23;;;14.63;;
44434;SDS011;30138;20.964;105.830;2023-10-09T01:32:55;26.83;;;15.00;;
44434;SDS011;30138;20.964;105.830;2023-10-09T01:38:14;28.70;;;13.98;;
44434;SDS011;30138;20.964;105.830;2023-10-09T01:43:33;25.58;;;14.13;;
44434;SDS011;30138;20.964;105.830;2023-10-09T01:48:41;27.85;;;14.10;;
44434;SDS011;30138;20.964;105.830;2023-10-09T01:53:48;24.38;;;14.07;;
44434;SDS011;30138;20.964;105.830;2023-10-09T01:59:01;27.20;;;14.13;;
44434;SDS011;30138;20.964;105.830;2023-10-09T02:04:11;25.27;;;13.73;;
44434;SDS011;30138;20.964;105.830;2023-10-09T02:09:21;24.92;;;13.98;;
44434;SDS011;30138;20.964;105.830;2023-10-09T02:14:37;20.02;;;13.38;;
44434;SDS011;30138;20.964;105.830;2023-10-09T02:19:45;23.90;;;12.45;;
44434;SDS011;30138;20.964;105.830;2023-10-09T02:24:54;22.17;;;12.48;;
44434;SDS011;30138;20.964;105.830;2023-10-09T02:30:09;21.48;;;11.90;;
44434;SDS011;30138;20.964;105.830;2023-10-09T02:35:21;20.25;;;12.15;;
44434;SDS011;30138;20.964;105.830;2023-10-09T02:40:40;20.95;;;12.40;;
44434;SDS011;30138;20.964;105.830;2023-10-09T02:46:03;22.63;;;13.20;;
44434;SDS011;30138;20.964;105.830;2023-10-09T02:51:16;15.80;;;10.57;;
44434;SDS011;30138;20.964;105.830;2023-10-09T02:56:35;17.55;;;11.40;;
44434;SDS011;30138;20.964;105.830;2023-10-09T03:01:47;16.92;;;10.98;;
44434;SDS011;30138;20.964;105.830;2023-10-09T03:06:55;18.53;;;11.20;;
44434;SDS011;30138;20.964;105.830;2023-10-09T03:12:02;17.85;;;10.82;;
44434;SDS011;30138;20.964;105.830;2023-10-09T03:17:13;16.65;;;9.93;;
44434;SDS011;30138;20.964;105.830;2023-10-09T03:22:20;14.80;;;10.02;;
44434;SDS011;30138;20.964;105.830;2023-10-09T03:27:28;17.10;;;10.55;;
44434;SDS011;30138;20.964;105.830;2023-10-09T03:32:37;15.40;;;9.68;;
44434;SDS011;30138;20.964;105.830;2023-10-09T03:37:45;14.73;;;9.30;;
44434;SDS011;30138;20.964;105.830;2023-10-09T03:42:53;15.57;;;9.48;;
44434;SDS011;30138;20.964;105.830;2023-10-09T03:48:02;14.15;;;9.20;;
44434;SDS011;30138;20.964;105.830;2023-10-09T03:53:17;15.68;;;9.57;;
44434;SDS011;30138;20.964;105.830;2023-10-09T03:58:25;14.63;;;8.80;;
44434;SDS011;30138;20.964;105.830;2023-10-09T04:03:37;13.30;;;8.90;;
44434;SDS011;30138;20.964;105.830;2023-10-09T04:08:44;14.25;;;8.57;;
44434;SDS011;30138;20.964;105.830;2023-10-09T04:13:51;13.23;;;8.18;;
44434;SDS011;30138;20.964;105.830;2023-10-09T04:19:03;15.13;;;9.10;;
44434;SDS011;30138;20.964;105.830;2023-10-09T04:24:23;11.05;;;8.38;;
44434;SDS011;30138;20.964;105.830;2023-10-09T04:29:37;14.10;;;8.27;;
44434;SDS011;30138;20.964;105.830;2023-10-09T04:34:50;13.73;;;7.95;;
44434;SDS011;30138;20.964;105.830;2023-10-09T04:40:19;16.08;;;8.57;;
44434;SDS011;30138;20.964;105.830;2023-10-09T04:45:39;15.27;;;8.40;;
44434;SDS011;30138;20.964;105.830;2023-10-09T04:51:17;12.98;;;8.23;;
44434;SDS011;30138;20.964;105.830;2023-10-09T04:56:43;12.90;;;7.95;;
44434;SDS011;30138;20.964;105.830;2023-10-09T05:01:57;9.27;;;7.18;;
44434;SDS011;30138;20.964;105.830;2023-10-09T05:07:08;13.13;;;7.90;;
44434;SDS011;30138;20.964;105.830;2023-10-09T05:12:47;9.90;;;7.28;;
44434;SDS011;30138;20.964;105.830;2023-10-09T05:17:58;16.15;;;8.45;;
44434;SDS011;30138;20.964;105.830;2023-10-09T05:23:13;14.30;;;7.95;;
44434;SDS011;30138;20.964;105.830;2023-10-09T05:28:31;13.27;;;7.32;;
44434;SDS011;30138;20.964;105.830;2023-10-09T05:34:05;16.38;;;7.65;;
44434;SDS011;30138;20.964;105.830;2023-10-09T05:39:14;10.55;;;7.38;;
44434;SDS011;30138;20.964;105.830;2023-10-09T05:44:32;12.65;;;8.00;;
44434;SDS011;30138;20.964;105.830;2023-10-09T05:49:57;11.25;;;8.02;;
44434;SDS011;30138;20.964;105.830;2023-10-09T05:55:17;10.02;;;7.20;;
44434;SDS011;30138;20.964;105.830;2023-10-09T06:00:37;11.07;;;7.05;;
44434;SDS011;30138;20.964;105.830;2023-10-09T06:06:02;11.52;;;7.20;;
44434;SDS011;30138;20.964;105.830;2023-10-09T06:11:10;11.00;;;7.15;;
44434;SDS011;30138;20.964;105.830;2023-10-09T06:16:30;10.33;;;7.07;;
44434;SDS011;30138;20.964;105.830;2023-10-09T06:22:03;11.87;;;7.27;;
44434;SDS011;30138;20.964;105.830;2023-10-09T06:27:26;15.43;;;7.22;;
44434;SDS011;30138;20.964;105.830;2023-10-09T06:32:58;8.65;;;6.35;;
44434;SDS011;30138;20.964;105.830;2023-10-09T06:38:23;12.27;;;6.88;;
44434;SDS011;30138;20.964;105.830;2023-10-09T06:43:52;9.95;;;6.60;;
44434;SDS011;30138;20.964;105.830;2023-10-09T06:49:08;10.00;;;6.43;;
44434;SDS011;30138;20.964;105.830;2023-10-09T06:54:42;8.35;;;6.25;;
44434;SDS011;30138;20.964;105.830;2023-10-09T06:59:58;13.55;;;6.50;;
44434;SDS011;30138;20.964;105.830;2023-10-09T07:05:33;10.90;;;6.32;;
44434;SDS011;30138;20.964;105.830;2023-10-09T07:11:02;11.32;;;6.90;;
44434;SDS011;30138;20.964;105.830;2023-10-09T07:16:22;12.38;;;7.15;;
44434;SDS011;30138;20.964;105.830;2023-10-09T07:21:39;11.77;;;6.80;;
44434;SDS011;30138;20.964;105.830;2023-10-09T07:26:55;9.30;;;6.28;;
44434;SDS011;30138;20.964;105.830;2023-10-09T07:32:08;11.75;;;7.15;;
44434;SDS011;30138;20.964;105.830;2023-10-09T07:37:22;10.23;;;6.82;;
44434;SDS011;30138;20.964;105.830;2023-10-09T07:42:35;13.17;;;7.17;;
44434;SDS011;30138;20.964;105.830;2023-10-09T07:47:47;10.15;;;6.70;;
44434;SDS011;30138;20.964;105.830;2023-10-09T07:53:16;12.40;;;7.88;;
44434;SDS011;30138;20.964;105.830;2023-10-09T07:58:29;12.35;;;7.70;;
44434;SDS011;30138;20.964;105.830;2023-10-09T08:03:48;12.43;;;7.50;;
44434;SDS011;30138;20.964;105.830;2023-10-09T08:09:04;10.23;;;7.53;;
44434;SDS011;30138;20.964;105.830;2023-10-09T08:14:49;11.27;;;7.47;;
44434;SDS011;30138;20.964;105.830;2023-10-09T08:20:01;12.63;;;8.20;;
44434;SDS011;30138;20.964;105.830;2023-10-09T08:25:15;13.27;;;8.45;;
44434;SDS011;30138;20.964;105.830;2023-10-09T08:30:35;11.40;;;8.15;;
44434;SDS011;30138;20.964;105.830;2023-10-09T08:35:53;11.35;;;8.43;;
44434;SDS011;30138;20.964;105.830;2023-10-09T08:41:07;11.68;;;7.85;;
44434;SDS011;30138;20.964;105.830;2023-10-09T08:46:26;11.88;;;8.25;;
44434;SDS011;30138;20.964;105.830;2023-10-09T08:51:34;14.77;;;9.00;;
44434;SDS011;30138;20.964;105.830;2023-10-09T08:56:43;11.65;;;8.68;;
44434;SDS011;30138;20.964;105.830;2023-10-09T09:01:58;11.88;;;8.32;;
44434;SDS011;30138;20.964;105.830;2023-10-09T09:07:06;12.15;;;8.90;;
44434;SDS011;30138;20.964;105.830;2023-10-09T09:12:33;14.23;;;8.18;;
44434;SDS011;30138;20.964;105.830;2023-10-09T09:17:46;11.23;;;8.25;;
44434;SDS011;30138;20.964;105.830;2023-10-09T09:22:53;14.75;;;8.57;;
44434;SDS011;30138;20.964;105.830;2023-10-09T09:28:01;13.40;;;8.73;;
44434;SDS011;30138;20.964;105.830;2023-10-09T09:33:19;11.35;;;7.93;;
44434;SDS011;30138;20.964;105.830;2023-10-09T09:38:40;10.75;;;8.40;;
44434;SDS011;30138;20.964;105.830;2023-10-09T09:49:04;12.68;;;8.27;;
44434;SDS011;30138;20.964;105.830;2023-10-09T09:54:18;12.18;;;8.27;;
44434;SDS011;30138;20.964;105.830;2023-10-09T09:59:26;11.27;;;8.73;;
44434;SDS011;30138;20.964;105.830;2023-10-09T10:04:39;15.75;;;8.32;;
44434;SDS011;30138;20.964;105.830;2023-10-09T10:09:51;16.08;;;9.90;;
44434;SDS011;30138;20.964;105.830;2023-10-09T10:14:59;14.95;;;10.02;;
44434;SDS011;30138;20.964;105.830;2023-10-09T10:20:18;16.20;;;9.65;;
44434;SDS011;30138;20.964;105.830;2023-10-09T10:25:33;14.55;;;10.48;;
44434;SDS011;30138;20.964;105.830;2023-10-09T10:30:45;14.15;;;10.05;;
44434;SDS011;30138;20.964;105.830;2023-10-09T10:35:56;17.77;;;10.90;;
44434;SDS011;30138;20.964;105.830;2023-10-09T10:41:08;13.50;;;9.68;;
44434;SDS011;30138;20.964;105.830;2023-10-09T10:46:18;17.40;;;11.13;;
44434;SDS011;30138;20.964;105.830;2023-10-09T10:56:51;18.08;;;10.40;;
44434;SDS011;30138;20.964;105.830;2023-10-09T11:01:59;13.70;;;9.85;;
44434;SDS011;30138;20.964;105.830;2023-10-09T11:07:26;18.40;;;10.48;;
44434;SDS011;30138;20.964;105.830;2023-10-09T11:12:42;13.48;;;10.15;;
44434;SDS011;30138;20.964;105.830;2023-10-09T11:18:11;15.43;;;10.70;;
44434;SDS011;30138;20.964;105.830;2023-10-09T11:23:28;16.10;;;10.75;;
44434;SDS011;30138;20.964;105.830;2023-10-09T11:28:41;16.25;;;10.93;;
44434;SDS011;30138;20.964;105.830;2023-10-09T11:33:51;15.00;;;10.68;;
44434;SDS011;30138;20.964;105.830;2023-10-09T11:39:01;15.48;;;10.95;;
44434;SDS011;30138;20.964;105.830;2023-10-09T11:44:33;20.08;;;12.15;;
44434;SDS011;30138;20.964;105.830;2023-10-09T11:49:57;20.77;;;13.27;;
44434;SDS011;30138;20.964;105.830;2023-10-09T11:55:20;22.08;;;14.25;;
44434;SDS011;30138;20.964;105.830;2023-10-09T12:00:27;23.52;;;15.57;;
44434;SDS011;30138;20.964;105.830;2023-10-09T12:05:46;30.27;;;18.58;;
44434;SDS011;30138;20.964;105.830;2023-10-09T12:10:57;34.80;;;19.15;;
44434;SDS011;30138;20.964;105.830;2023-10-09T12:16:06;34.60;;;20.65;;
44434;SDS011;30138;20.964;105.830;2023-10-09T12:21:17;42.13;;;23.38;;
44434;SDS011;30138;20.964;105.830;2023-10-09T12:26:27;35.60;;;22.92;;
44434;SDS011;30138;20.964;105.830;2023-10-09T12:31:37;40.20;;;25.60;;
44434;SDS011;30138;20.964;105.830;2023-10-09T12:36:47;49.03;;;30.10;;
44434;SDS011;30138;20.964;105.830;2023-10-09T12:41:57;63.97;;;34.85;;
44434;SDS011;30138;20.964;105.830;2023-10-09T12:47:08;60.60;;;34.03;;
44434;SDS011;30138;20.964;105.830;2023-10-09T12:52:15;63.25;;;36.70;;
44434;SDS011;30138;20.964;105.830;2023-10-09T12:57:26;62.53;;;36.33;;
44434;SDS011;30138;20.964;105.830;2023-10-09T13:02:32;70.97;;;38.57;;
44434;SDS011;30138;20.964;105.830;2023-10-09T13:07:45;62.70;;;36.65;;
44434;SDS011;30138;20.964;105.830;2023-10-09T13:12:56;62.47;;;37.17;;
44434;SDS011;30138;20.964;105.830;2023-10-09T13:18:10;60.53;;;37.08;;
44434;SDS011;30138;20.964;105.830;2023-10-09T13:23:21;65.38;;;36.03;;
44434;SDS011;30138;20.964;105.830;2023-10-09T13:28:41;59.28;;;33.28;;
44434;SDS011;30138;20.964;105.830;2023-10-09T13:33:49;60.75;;;32.80;;
44434;SDS011;30138;20.964;105.830;2023-10-09T13:38:58;56.75;;;32.20;;
44434;SDS011;30138;20.964;105.830;2023-10-09T13:45:06;57.20;;;30.75;;
44434;SDS011;30138;20.964;105.830;2023-10-09T13:50:17;55.75;;;30.20;;
44434;SDS011;30138;20.964;105.830;2023-10-09T13:55:25;49.45;;;29.73;;
44434;SDS011;30138;20.964;105.830;2023-10-09T14:00:39;46.25;;;28.58;;
44434;SDS011;30138;20.964;105.830;2023-10-09T14:05:55;48.38;;;29.60;;
44434;SDS011;30138;20.964;105.830;2023-10-09T14:11:13;46.00;;;26.90;;
44434;SDS011;30138;20.964;105.830;2023-10-09T14:16:24;49.00;;;26.50;;
44434;SDS011;30138;20.964;105.830;2023-10-09T14:21:38;43.85;;;26.55;;
44434;SDS011;30138;20.964;105.830;2023-10-09T14:27:31;44.35;;;25.40;;
44434;SDS011;30138;20.964;105.830;2023-10-09T14:32:45;44.88;;;25.75;;
44434;SDS011;30138;20.964;105.830;2023-10-09T14:37:58;43.45;;;25.08;;
44434;SDS011;30138;20.964;105.830;2023-10-09T14:43:51;40.30;;;22.90;;
44434;SDS011;30138;20.964;105.830;2023-10-09T14:49:10;35.20;;;21.58;;
44434;SDS011;30138;20.964;105.830;2023-10-09T14:54:24;42.88;;;21.33;;
44434;SDS011;30138;20.964;105.830;2023-10-09T14:59:33;29.67;;;19.55;;
44434;SDS011;30138;20.964;105.830;2023-10-09T15:04:42;32.78;;;18.75;;
44434;SDS011;30138;20.964;105.830;2023-10-09T15:09:49;31.73;;;17.77;;
44434;SDS011;30138;20.964;105.830;2023-10-09T15:14:57;32.13;;;17.13;;
44434;SDS011;30138;20.964;105.830;2023-10-09T15:20:16;34.55;;;17.33;;
44434;SDS011;30138;20.964;105.830;2023-10-09T15:25:23;28.85;;;16.55;;
44434;SDS011;30138;20.964;105.830;2023-10-09T15:30:38;23.88;;;14.85;;
44434;SDS011;30138;20.964;105.830;2023-10-09T15:35:57;22.88;;;14.40;;
44434;SDS011;30138;20.964;105.830;2023-10-09T15:41:18;25.40;;;14.30;;
44434;SDS011;30138;20.964;105.830;2023-10-09T15:46:29;26.90;;;16.13;;
44434;SDS011;30138;20.964;105.830;2023-10-09T15:51:39;23.52;;;14.20;;
44434;SDS011;30138;20.964;105.830;2023-10-09T15:56:48;26.55;;;15.30;;
44434;SDS011;30138;20.964;105.830;2023-10-09T16:02:07;27.60;;;14.60;;
44434;SDS011;30138;20.964;105.830;2023-10-09T16:07:17;26.30;;;14.80;;
44434;SDS011;30138;20.964;105.830;2023-10-09T16:12:24;28.90;;;15.23;;
44434;SDS011;30138;20.964;105.830;2023-10-09T16:17:32;26.00;;;14.40;;
44434;SDS011;30138;20.964;105.830;2023-10-09T16:22:46;26.65;;;14.63;;
44434;SDS011;30138;20.964;105.830;2023-10-09T16:27:53;23.58;;;15.15;;
44434;SDS011;30138;20.964;105.830;2023-10-09T16:33:01;22.20;;;14.70;;
44434;SDS011;30138;20.964;105.830;2023-10-09T16:38:14;26.85;;;14.45;;
44434;SDS011;30138;20.964;105.830;2023-10-09T16:43:24;25.90;;;14.85;;
44434;SDS011;30138;20.964;105.830;2023-10-09T16:48:32;27.75;;;14.95;;
44434;SDS011;30138;20.964;105.830;2023-10-09T16:53:43;22.02;;;15.65;;
44434;SDS011;30138;20.964;105.830;2023-10-09T16:58:54;22.27;;;15.07;;
44434;SDS011;30138;20.964;105.830;2023-10-09T17:04:02;26.38;;;14.23;;
44434;SDS011;30138;20.964;105.830;2023-10-09T17:09:15;19.33;;;13.07;;
44434;SDS011;30138;20.964;105.830;2023-10-09T17:14:23;19.73;;;14.20;;
44434;SDS011;30138;20.964;105.830;2023-10-09T17:19:30;23.33;;;13.95;;
44434;SDS011;30138;20.964;105.830;2023-10-09T17:24:41;19.88;;;12.80;;
44434;SDS011;30138;20.964;105.830;2023-10-09T17:29:48;21.40;;;13.80;;
44434;SDS011;30138;20.964;105.830;2023-10-09T17:40:11;24.98;;;13.82;;
44434;SDS011;30138;20.964;105.830;2023-10-09T17:45:20;20.53;;;13.80;;
44434;SDS011;30138;20.964;105.830;2023-10-09T17:50:29;25.52;;;14.70;;
44434;SDS011;30138;20.964;105.830;2023-10-09T17:55:37;26.13;;;15.93;;
44434;SDS011;30138;20.964;105.830;2023-10-09T18:00:46;29.33;;;17.27;;
44434;SDS011;30138;20.964;105.830;2023-10-09T18:06:00;34.78;;;17.83;;
44434;SDS011;30138;20.964;105.830;2023-10-09T18:11:16;30.15;;;18.48;;
44434;SDS011;30138;20.964;105.830;2023-10-09T18:16:23;30.58;;;17.77;;
44434;SDS011;30138;20.964;105.830;2023-10-09T18:21:31;26.65;;;15.13;;
44434;SDS011;30138;20.964;105.830;2023-10-09T18:26:44;23.73;;;14.40;;
44434;SDS011;30138;20.964;105.830;2023-10-09T18:31:52;24.85;;;13.90;;
44434;SDS011;30138;20.964;105.830;2023-10-09T18:36:59;21.85;;;13.68;;
44434;SDS011;30138;20.964;105.830;2023-10-09T18:42:11;24.92;;;13.48;;
44434;SDS011;30138;20.964;105.830;2023-10-09T18:47:18;21.15;;;13.38;;
44434;SDS011;30138;20.964;105.830;2023-10-09T18:52:25;22.92;;;12.85;;
44434;SDS011;30138;20.964;105.830;2023-10-09T18:57:37;21.45;;;12.60;;
44434;SDS011;30138;20.964;105.830;2023-10-09T19:02:45;20.80;;;13.57;;
44434;SDS011;30138;20.964;105.830;2023-10-09T19:07:53;24.13;;;13.50;;
44434;SDS011;30138;20.964;105.830;2023-10-09T19:13:02;22.30;;;13.80;;
44434;SDS011;30138;20.964;105.830;2023-10-09T19:18:11;21.67;;;13.93;;
44434;SDS011;30138;20.964;105.830;2023-10-09T19:23:21;22.33;;;13.98;;
44434;SDS011;30138;20.964;105.830;2023-10-09T19:28:30;22.88;;;14.05;;
44434;SDS011;30138;20.964;105.830;2023-10-09T19:33:39;27.83;;;13.77;;
44434;SDS011;30138;20.964;105.830;2023-10-09T19:38:46;22.83;;;15.13;;
44434;SDS011;30138;20.964;105.830;2023-10-09T19:43:55;24.02;;;15.57;;
44434;SDS011;30138;20.964;105.830;2023-10-09T19:49:06;22.67;;;15.35;;
44434;SDS011;30138;20.964;105.830;2023-10-09T19:54:13;24.23;;;16.00;;
44434;SDS011;30138;20.964;105.830;2023-10-09T19:59:24;24.17;;;15.75;;
44434;SDS011;30138;20.964;105.830;2023-10-09T20:04:31;26.88;;;16.40;;
44434;SDS011;30138;20.964;105.830;2023-10-09T20:09:38;26.13;;;16.08;;
44434;SDS011;30138;20.964;105.830;2023-10-09T20:14:47;23.13;;;16.13;;
44434;SDS011;30138;20.964;105.830;2023-10-09T20:19:54;25.08;;;15.50;;
44434;SDS011;30138;20.964;105.830;2023-10-09T20:25:01;26.02;;;16.38;;
44434;SDS011;30138;20.964;105.830;2023-10-09T20:30:16;24.42;;;15.13;;
44434;SDS011;30138;20.964;105.830;2023-10-09T20:35:34;29.70;;;16.90;;
44434;SDS011;30138;20.964;105.830;2023-10-09T20:41:07;23.05;;;14.80;;
44434;SDS011;30138;20.964;105.830;2023-10-09T20:46:20;24.58;;;15.63;;
44434;SDS011;30138;20.964;105.830;2023-10-09T20:51:31;24.45;;;15.38;;
44434;SDS011;30138;20.964;105.830;2023-10-09T20:56:42;23.87;;;14.73;;
44434;SDS011;30138;20.964;105.830;2023-10-09T21:02:05;23.45;;;14.98;;
44434;SDS011;30138;20.964;105.830;2023-10-09T21:07:20;21.75;;;14.88;;
44434;SDS011;30138;20.964;105.830;2023-10-09T21:12:27;26.77;;;15.20;;
44434;SDS011;30138;20.964;105.830;2023-10-09T21:17:36;19.75;;;14.18;;
44434;SDS011;30138;20.964;105.830;2023-10-09T21:22:44;23.58;;;15.88;;
44434;SDS011;30138;20.964;105.830;2023-10-09T21:27:55;26.50;;;15.63;;
44434;SDS011;30138;20.964;105.830;2023-10-09T21:33:06;22.90;;;15.10;;
44434;SDS011;30138;20.964;105.830;2023-10-09T21:38:13;21.20;;;15.00;;
44434;SDS011;30138;20.964;105.830;2023-10-09T21:43:20;21.63;;;14.55;;
44434;SDS011;30138;20.964;105.830;2023-10-09T21:48:30;20.25;;;13.90;;
44434;SDS011;30138;20.964;105.830;2023-10-09T21:53:37;21.50;;;13.63;;
44434;SDS011;30138;20.964;105.830;2023-10-09T21:58:45;20.23;;;12.82;;
44434;SDS011;30138;20.964;105.830;2023-10-09T22:03:55;20.13;;;12.70;;
44434;SDS011;30138;20.964;105.830;2023-10-09T22:09:02;20.65;;;12.77;;
44434;SDS011;30138;20.964;105.830;2023-10-09T22:14:10;20.15;;;11.90;;
44434;SDS011;30138;20.964;105.830;2023-10-09T22:19:19;20.20;;;12.05;;
44434;SDS011;30138;20.964;105.830;2023-10-09T22:24:27;19.40;;;12.55;;
44434;SDS011;30138;20.964;105.830;2023-10-09T22:29:37;18.38;;;11.88;;
44434;SDS011;30138;20.964;105.830;2023-10-09T22:34:46;15.38;;;10.70;;
44434;SDS011;30138;20.964;105.830;2023-10-09T22:39:55;18.05;;;10.95;;
44434;SDS011;30138;20.964;105.830;2023-10-09T22:45:03;14.27;;;10.52;;
44434;SDS011;30138;20.964;105.830;2023-10-09T22:50:13;16.23;;;10.10;;
44434;SDS011;30138;20.964;105.830;2023-10-09T22:55:23;16.63;;;10.02;;
44434;SDS011;30138;20.964;105.830;2023-10-09T23:00:33;16.08;;;9.93;;
44434;SDS011;30138;20.964;105.830;2023-10-09T23:05:51;12.73;;;8.98;;
44434;SDS011;30138;20.964;105.830;2023-10-09T23:11:01;15.48;;;9.18;;
44434;SDS011;30138;20.964;105.830;2023-10-09T23:16:14;21.23;;;9.70;;
44434;SDS011;30138;20.964;105.830;2023-10-09T23:21:34;19.90;;;10.20;;
44434;SDS011;30138;20.964;105.830;2023-10-09T23:26:57;17.67;;;9.70;;
44434;SDS011;30138;20.964;105.830;2023-10-09T23:32:07;21.63;;;10.50;;
44434;SDS011;30138;20.964;105.830;2023-10-09T23:37:35;20.50;;;10.82;;
44434;SDS011;30138;20.964;105.830;2023-10-09T23:43:03;19.88;;;10.40;;
44434;SDS011;30138;20.964;105.830;2023-10-09T23:48:14;19.70;;;11.48;;
44434;SDS011;30138;20.964;105.830;2023-10-09T23:53:28;16.73;;;11.68;;
